createdAt,value
2017-07-02T00:02:11.360Z,93.90
2017-07-02T00:04:39.647Z,94.00
2017-07-02T00:07:07.142Z,93.90
2017-07-02T00:09:34.627Z,94.20
2017-07-02T00:14:33.844Z,93.90
2017-07-02T00:17:01.352Z,93.80
2017-07-02T00:19:28.844Z,94.00
2017-07-02T00:21:56.385Z,93.70
2017-07-02T00:24:23.916Z,93.40
2017-07-02T00:26:51.428Z,93.40
2017-07-02T00:29:18.910Z,93.00
2017-07-02T00:31:46.474Z,93.30
2017-07-02T00:34:14.747Z,94.00
2017-07-02T00:36:42.232Z,94.00
2017-07-02T00:39:09.750Z,93.90
2017-07-02T00:41:37.239Z,94.00
2017-07-02T00:44:04.808Z,94.10
2017-07-02T00:46:32.330Z,94.10
2017-07-02T00:48:59.819Z,94.20
2017-07-02T00:51:27.618Z,94.40
2017-07-02T00:53:55.146Z,94.30
2017-07-02T00:56:22.698Z,94.20
2017-07-02T00:58:50.965Z,94.60
2017-07-02T01:01:19.245Z,94.60
2017-07-02T01:03:47.523Z,94.90
2017-07-02T01:06:15.773Z,94.80
2017-07-02T01:08:43.303Z,94.80
2017-07-02T01:11:10.819Z,94.80
2017-07-02T01:13:39.128Z,94.30
2017-07-02T01:16:06.635Z,94.30
2017-07-02T01:18:34.120Z,94.30
2017-07-02T01:21:02.387Z,94.20
2017-07-02T01:23:30.764Z,94.50
2017-07-02T01:25:59.027Z,94.60
2017-07-02T01:28:26.524Z,94.40
2017-07-02T01:30:54.026Z,94.30
2017-07-02T01:33:21.558Z,94.70
2017-07-02T01:35:49.135Z,94.60
2017-07-02T01:38:16.661Z,94.60
2017-07-02T01:40:44.152Z,94.90
2017-07-02T01:43:11.901Z,94.60
2017-07-02T01:45:39.480Z,94.50
2017-07-02T01:48:06.999Z,95.30
2017-07-02T01:50:34.507Z,95.20
2017-07-02T01:53:02.014Z,94.90
2017-07-02T01:55:29.495Z,94.70
2017-07-02T01:57:56.989Z,95.40
2017-07-02T02:00:24.520Z,99.90
2017-07-02T02:03:14.915Z,99.90
2017-07-02T02:05:42.446Z,97.10
2017-07-02T02:08:09.988Z,96.70
2017-07-02T02:10:38.296Z,96.30
2017-07-02T02:13:05.837Z,96.10
2017-07-02T02:15:34.103Z,95.60
2017-07-02T02:18:02.421Z,95.50
2017-07-02T02:20:29.950Z,95.40
2017-07-02T02:22:58.214Z,95.20
2017-07-02T02:25:26.484Z,95.00
2017-07-02T02:27:54.067Z,95.00
2017-07-02T02:30:22.337Z,94.60
2017-07-02T02:32:50.633Z,94.50
2017-07-02T02:35:18.175Z,94.50
2017-07-02T02:37:46.479Z,94.60
2017-07-02T02:40:13.990Z,94.50
2017-07-02T02:42:41.593Z,94.30
2017-07-02T02:45:09.159Z,94.40
2017-07-02T02:47:36.663Z,94.30
2017-07-02T02:50:04.188Z,93.90
2017-07-02T02:52:31.689Z,93.90
2017-07-02T02:54:59.190Z,94.00
2017-07-02T02:57:26.700Z,93.70
2017-07-02T02:59:54.240Z,93.50
2017-07-02T03:02:21.743Z,93.70
2017-07-02T03:04:50.031Z,93.60
2017-07-02T03:07:17.599Z,93.60
2017-07-02T03:09:45.105Z,93.30
2017-07-02T03:12:12.702Z,93.10
2017-07-02T03:14:40.980Z,92.90
2017-07-02T03:17:09.254Z,93.00
2017-07-02T03:19:37.565Z,92.90
2017-07-02T03:22:05.055Z,92.90
2017-07-02T03:24:32.885Z,92.70
2017-07-02T03:27:00.400Z,92.50
2017-07-02T03:29:27.919Z,92.70
2017-07-02T03:31:55.438Z,92.70
2017-07-02T03:34:23.734Z,92.70
2017-07-02T03:36:51.278Z,92.70
2017-07-02T03:39:18.783Z,92.60
2017-07-02T03:41:46.313Z,92.80
2017-07-02T03:44:13.790Z,92.60
2017-07-02T03:46:41.310Z,92.30
2017-07-02T03:49:09.594Z,92.30
2017-07-02T03:51:37.087Z,92.30
2017-07-02T03:54:04.584Z,92.20
2017-07-02T03:56:32.115Z,92.20
2017-07-02T03:58:59.603Z,92.20
2017-07-02T04:01:27.111Z,92.10
2017-07-02T04:03:54.644Z,92.50
2017-07-02T04:06:22.162Z,92.50
2017-07-02T04:08:49.671Z,92.10
2017-07-02T04:11:17.179Z,92.10
2017-07-02T04:13:44.705Z,92.20
2017-07-02T04:16:12.261Z,92.20
2017-07-02T04:18:39.769Z,92.10
2017-07-02T04:21:07.284Z,92.00
2017-07-02T04:23:34.781Z,92.00
2017-07-02T04:26:02.398Z,92.10
2017-07-02T04:28:29.896Z,92.10
2017-07-02T04:30:57.384Z,91.90
2017-07-02T04:33:25.713Z,91.70
2017-07-02T04:35:53.226Z,91.60
2017-07-02T04:38:21.496Z,91.70
2017-07-02T04:40:49.781Z,91.70
2017-07-02T04:43:18.021Z,91.70
2017-07-02T04:45:45.545Z,91.60
2017-07-02T04:48:13.088Z,91.50
2017-07-02T04:50:40.610Z,91.30
2017-07-02T04:53:08.109Z,91.30
2017-07-02T04:55:35.651Z,91.20
2017-07-02T04:58:03.919Z,91.00
2017-07-02T05:00:32.240Z,91.10
2017-07-02T05:02:59.800Z,91.10
2017-07-02T05:05:27.328Z,91.30
2017-07-02T05:07:55.594Z,91.00
2017-07-02T05:10:23.992Z,91.60
2017-07-02T05:12:51.543Z,91.50
2017-07-02T05:15:19.805Z,91.40
2017-07-02T05:17:48.098Z,91.80
2017-07-02T05:20:16.412Z,91.50
2017-07-02T05:22:44.298Z,91.50
2017-07-02T05:25:11.869Z,91.10
2017-07-02T05:27:39.365Z,91.20
2017-07-02T05:30:06.944Z,91.00
2017-07-02T05:32:34.495Z,90.90
2017-07-02T05:35:01.992Z,91.00
2017-07-02T05:37:29.496Z,91.00
2017-07-02T05:39:57.788Z,90.70
2017-07-02T05:42:25.280Z,90.70
2017-07-02T05:44:53.473Z,90.50
2017-07-02T05:47:20.977Z,90.30
2017-07-02T05:49:48.485Z,89.90
2017-07-02T05:52:15.974Z,90.20
2017-07-02T05:54:44.302Z,88.60
2017-07-02T05:57:11.792Z,88.60
2017-07-02T05:59:39.316Z,87.60
2017-07-02T06:02:06.844Z,88.00
2017-07-02T06:04:34.420Z,87.40
2017-07-02T06:07:01.907Z,87.40
2017-07-02T06:09:29.632Z,87.50
2017-07-02T06:11:57.121Z,86.70
2017-07-02T06:14:24.661Z,87.00
2017-07-02T06:16:52.181Z,86.40
2017-07-02T06:19:19.687Z,84.50
2017-07-02T06:21:47.200Z,84.10
2017-07-02T06:24:15.534Z,82.50
2017-07-02T06:26:43.035Z,82.50
2017-07-02T06:29:11.317Z,82.20
2017-07-02T06:31:39.616Z,81.00
2017-07-02T06:34:07.146Z,81.00
2017-07-02T06:36:34.641Z,78.90
2017-07-02T06:39:02.138Z,78.00
2017-07-02T06:41:29.638Z,78.20
2017-07-02T06:43:57.925Z,77.90
2017-07-02T06:46:25.444Z,77.90
2017-07-02T06:48:53.595Z,77.30
2017-07-02T06:51:21.094Z,79.40
2017-07-02T06:53:48.621Z,79.20
2017-07-02T06:56:16.132Z,78.20
2017-07-02T06:58:43.632Z,79.70
2017-07-02T07:01:11.163Z,75.80
2017-07-02T07:03:38.716Z,76.50
2017-07-02T07:06:06.223Z,77.30
2017-07-02T07:08:33.734Z,72.40
2017-07-02T07:11:01.237Z,73.20
2017-07-02T07:13:28.733Z,72.50
2017-07-02T07:15:57.039Z,68.10
2017-07-02T07:18:24.534Z,68.10
2017-07-02T07:20:52.050Z,69.10
2017-07-02T07:23:19.586Z,69.90
2017-07-02T07:25:47.858Z,68.70
2017-07-02T07:28:16.133Z,70.00
2017-07-02T07:30:44.440Z,69.00
2017-07-02T07:33:12.011Z,69.20
2017-07-02T07:35:39.525Z,68.60
2017-07-02T07:38:07.071Z,69.10
2017-07-02T07:40:34.565Z,68.70
2017-07-02T07:43:02.094Z,69.00
2017-07-02T07:45:29.634Z,68.10
2017-07-02T07:47:57.125Z,67.90
2017-07-02T07:50:24.629Z,67.00
2017-07-02T07:52:52.145Z,66.50
2017-07-02T07:55:19.638Z,67.10
2017-07-02T07:57:47.155Z,68.60
2017-07-02T08:00:14.706Z,68.10
2017-07-02T08:02:42.210Z,66.30
2017-07-02T08:05:09.711Z,67.10
2017-07-02T08:07:37.555Z,68.10
2017-07-02T08:10:05.072Z,67.50
2017-07-02T08:12:33.336Z,68.00
2017-07-02T08:15:01.712Z,67.70
2017-07-02T08:17:29.218Z,67.70
2017-07-02T08:19:56.687Z,69.10
2017-07-02T08:22:24.310Z,70.30
2017-07-02T08:24:52.581Z,69.30
2017-07-02T08:27:20.886Z,69.00
2017-07-02T08:29:49.323Z,69.00
2017-07-02T08:32:16.833Z,67.20
2017-07-02T08:34:44.329Z,69.30
2017-07-02T08:37:11.877Z,68.50
2017-07-02T08:39:39.381Z,68.20
2017-07-02T08:42:07.642Z,67.20
2017-07-02T08:44:35.854Z,67.10
2017-07-02T08:47:03.388Z,68.10
2017-07-02T08:49:31.665Z,68.30
2017-07-02T08:51:59.960Z,66.90
2017-07-02T08:54:27.452Z,66.90
2017-07-02T08:56:54.959Z,67.10
2017-07-02T08:59:23.256Z,65.30
2017-07-02T09:01:50.822Z,65.30
2017-07-02T09:04:18.317Z,64.40
2017-07-02T09:06:45.937Z,64.20
2017-07-02T09:09:13.440Z,63.30
2017-07-02T09:11:40.958Z,64.20
2017-07-02T09:14:08.479Z,64.20
2017-07-02T09:16:35.985Z,64.80
2017-07-02T09:19:03.476Z,64.50
2017-07-02T09:21:30.991Z,63.40
2017-07-02T09:23:58.483Z,65.00
2017-07-02T09:26:25.970Z,65.40
2017-07-02T09:28:53.505Z,63.80
2017-07-02T09:31:21.024Z,61.20
2017-07-02T09:33:48.741Z,62.90
2017-07-02T09:36:16.265Z,63.00
2017-07-02T09:38:43.750Z,61.50
2017-07-02T09:41:11.251Z,63.00
2017-07-02T09:43:39.536Z,62.90
2017-07-02T09:46:07.049Z,62.80
2017-07-02T09:48:34.591Z,62.90
2017-07-02T09:51:02.127Z,60.60
2017-07-02T09:53:29.622Z,59.30
2017-07-02T09:55:57.125Z,59.70
2017-07-02T09:58:25.444Z,59.80
2017-07-02T10:00:52.997Z,59.70
2017-07-02T10:03:20.498Z,59.20
2017-07-02T10:05:48.800Z,59.80
2017-07-02T10:08:16.279Z,59.80
2017-07-02T10:10:43.784Z,59.70
2017-07-02T10:13:11.382Z,60.10
2017-07-02T10:15:38.867Z,61.30
2017-07-02T10:18:06.363Z,62.10
2017-07-02T10:20:34.245Z,60.00
2017-07-02T10:23:01.761Z,61.70
2017-07-02T10:25:29.301Z,60.30
2017-07-02T10:27:56.840Z,58.30
2017-07-02T10:30:24.669Z,59.20
2017-07-02T10:32:52.192Z,56.80
2017-07-02T10:35:19.992Z,55.40
2017-07-02T10:37:47.491Z,55.30
2017-07-02T10:40:15.034Z,55.40
2017-07-02T10:42:42.585Z,55.00
2017-07-02T10:45:10.868Z,53.90
2017-07-02T10:47:39.154Z,53.00
2017-07-02T10:50:06.674Z,52.90
2017-07-02T10:52:34.184Z,53.10
2017-07-02T10:55:01.661Z,54.00
2017-07-02T10:57:29.271Z,54.60
2017-07-02T10:59:56.783Z,54.70
2017-07-02T11:02:24.722Z,54.90
2017-07-02T11:04:52.311Z,55.00
2017-07-02T11:07:19.841Z,55.20
2017-07-02T11:09:47.330Z,55.70
2017-07-02T11:12:14.848Z,55.10
2017-07-02T11:14:42.392Z,55.50
2017-07-02T11:17:09.919Z,55.40
2017-07-02T11:19:37.443Z,56.10
2017-07-02T11:22:05.719Z,56.10
2017-07-02T11:24:34.026Z,56.30
2017-07-02T11:27:01.582Z,56.20
2017-07-02T11:29:29.104Z,56.70
2017-07-02T11:31:57.533Z,55.20
2017-07-02T11:34:25.052Z,55.00
2017-07-02T11:36:52.599Z,54.60
2017-07-02T11:39:20.883Z,53.50
2017-07-02T11:41:49.184Z,52.90
2017-07-02T11:44:16.706Z,52.90
2017-07-02T11:46:45.010Z,53.50
2017-07-02T11:49:12.841Z,52.80
2017-07-02T11:51:40.349Z,54.50
2017-07-02T11:54:07.866Z,54.40
2017-07-02T11:56:35.412Z,54.20
2017-07-02T11:59:02.900Z,55.30
2017-07-02T12:01:30.402Z,54.40
2017-07-02T12:03:57.942Z,54.20
2017-07-02T12:06:25.472Z,55.20
2017-07-02T12:08:53.800Z,56.20
2017-07-02T12:11:21.320Z,56.10
2017-07-02T12:13:49.585Z,55.70
2017-07-02T12:16:17.143Z,55.60
2017-07-02T12:18:44.651Z,55.60
2017-07-02T12:21:12.142Z,55.40
2017-07-02T12:23:39.653Z,55.40
2017-07-02T12:26:07.172Z,55.80
2017-07-02T12:28:34.649Z,53.50
2017-07-02T12:31:02.142Z,52.70
2017-07-02T12:33:29.675Z,52.80
2017-07-02T12:35:57.150Z,52.90
2017-07-02T12:38:24.687Z,54.20
2017-07-02T12:40:52.243Z,55.10
2017-07-02T12:43:19.735Z,55.80
2017-07-02T12:45:47.236Z,56.80
2017-07-02T12:48:14.730Z,57.70
2017-07-02T12:50:42.277Z,58.30
2017-07-02T12:53:10.522Z,57.50
2017-07-02T12:55:38.026Z,57.40
2017-07-02T12:58:05.635Z,57.30
2017-07-02T13:00:33.125Z,56.80
2017-07-02T13:03:01.404Z,54.80
2017-07-02T13:05:28.901Z,54.60
2017-07-02T13:07:56.406Z,57.10
2017-07-02T13:10:24.095Z,57.60
2017-07-02T13:12:51.598Z,58.60
2017-07-02T13:15:19.110Z,58.90
2017-07-02T13:17:47.422Z,57.10
2017-07-02T13:20:14.954Z,57.00
2017-07-02T13:22:42.475Z,55.90
2017-07-02T13:25:09.993Z,53.70
2017-07-02T13:27:37.490Z,51.90
2017-07-02T13:30:04.987Z,51.50
2017-07-02T13:32:32.512Z,51.70
2017-07-02T13:35:00.011Z,52.30
2017-07-02T13:37:27.556Z,51.40
2017-07-02T13:39:55.848Z,47.40
2017-07-02T13:42:23.357Z,47.20
2017-07-02T13:44:50.856Z,45.60
2017-07-02T13:47:19.148Z,40.60
2017-07-02T13:49:46.671Z,40.60
2017-07-02T13:52:14.166Z,40.10
2017-07-02T13:54:41.711Z,40.30
2017-07-02T13:57:09.195Z,42.10
2017-07-02T13:59:36.697Z,42.90
2017-07-02T14:02:04.216Z,44.10
2017-07-02T14:04:31.713Z,42.10
2017-07-02T14:06:59.207Z,41.00
2017-07-02T14:09:26.745Z,42.40
2017-07-02T14:11:55.021Z,40.70
2017-07-02T14:14:22.538Z,40.60
2017-07-02T14:16:50.100Z,41.10
2017-07-02T14:19:17.622Z,42.90
2017-07-02T14:21:45.131Z,44.10
2017-07-02T14:24:12.690Z,46.30
2017-07-02T14:26:40.186Z,46.10
2017-07-02T14:29:08.506Z,46.40
2017-07-02T14:31:36.168Z,46.40
2017-07-02T14:34:03.671Z,46.40
2017-07-02T14:36:31.151Z,46.90
2017-07-02T14:38:58.706Z,44.00
2017-07-02T14:41:26.978Z,44.80
2017-07-02T14:43:55.255Z,45.20
2017-07-02T14:46:22.770Z,45.20
2017-07-02T14:48:50.295Z,45.40
2017-07-02T14:51:17.777Z,45.00
2017-07-02T14:53:45.315Z,46.60
2017-07-02T14:56:12.837Z,47.30
2017-07-02T14:58:40.348Z,45.30
2017-07-02T15:01:07.870Z,42.20
2017-07-02T15:03:35.372Z,44.00
2017-07-02T15:06:02.865Z,45.50
2017-07-02T15:08:30.379Z,42.80
2017-07-02T15:10:57.923Z,41.70
2017-07-02T15:13:25.415Z,44.30
2017-07-02T15:15:53.195Z,44.90
2017-07-02T15:18:20.694Z,47.10
2017-07-02T15:20:48.198Z,47.10
2017-07-02T15:23:15.717Z,46.80
2017-07-02T15:25:43.211Z,44.00
2017-07-02T15:28:10.706Z,43.00
2017-07-02T15:30:38.231Z,43.30
2017-07-02T15:33:05.742Z,43.50
2017-07-02T15:35:34.039Z,44.90
2017-07-02T15:38:01.570Z,44.80
2017-07-02T15:40:29.860Z,47.40
2017-07-02T15:42:58.134Z,47.90
2017-07-02T15:45:26.427Z,48.10
2017-07-02T15:47:53.925Z,48.00
2017-07-02T15:50:21.564Z,48.30
2017-07-02T15:52:49.135Z,46.40
2017-07-02T15:55:16.649Z,46.50
2017-07-02T15:57:49.936Z,49.10
2017-07-02T16:00:18.222Z,50.70
2017-07-02T16:02:46.477Z,52.90
2017-07-02T16:05:14.011Z,52.90
2017-07-02T16:07:41.505Z,53.40
2017-07-02T16:10:09.775Z,55.30
2017-07-02T16:12:37.320Z,55.30
2017-07-02T16:15:04.814Z,54.90
2017-07-02T16:17:33.105Z,55.60
2017-07-02T16:20:04.210Z,55.50
2017-07-02T16:22:31.721Z,56.30
2017-07-02T16:24:59.217Z,57.00
2017-07-02T16:27:26.728Z,57.40
2017-07-02T16:29:54.283Z,57.60
2017-07-02T16:32:22.575Z,58.10
2017-07-02T16:34:50.148Z,58.50
2017-07-02T16:37:17.695Z,58.40
2017-07-02T16:39:45.185Z,59.10
2017-07-02T16:42:12.773Z,60.10
2017-07-02T16:44:41.109Z,66.50
2017-07-02T16:47:08.618Z,66.30
2017-07-02T16:49:36.928Z,68.30
2017-07-02T16:52:04.436Z,68.20
2017-07-02T16:54:31.955Z,68.40
2017-07-02T16:56:59.483Z,69.40
2017-07-02T16:59:27.051Z,69.90
2017-07-02T17:01:54.568Z,68.30
2017-07-02T17:04:22.148Z,69.00
2017-07-02T17:06:50.688Z,70.00
2017-07-02T17:09:18.206Z,70.10
2017-07-02T17:11:45.742Z,70.20
2017-07-02T17:14:13.244Z,70.80
2017-07-02T17:16:40.766Z,71.70
2017-07-02T17:19:09.083Z,70.70
2017-07-02T17:21:36.614Z,70.70
2017-07-02T17:24:04.884Z,71.60
2017-07-02T17:26:33.230Z,72.00
2017-07-02T17:29:00.719Z,72.00
2017-07-02T17:31:28.980Z,73.00
2017-07-02T17:33:56.510Z,72.90
2017-07-02T17:36:24.159Z,73.30
2017-07-02T17:38:51.815Z,73.40
2017-07-02T17:41:19.482Z,73.60
2017-07-02T17:43:47.193Z,72.90
2017-07-02T17:46:21.015Z,73.00
2017-07-02T17:48:49.420Z,74.30
2017-07-02T17:51:16.957Z,74.30
2017-07-02T17:53:45.234Z,75.20
2017-07-02T17:56:13.538Z,75.50
2017-07-02T17:58:41.043Z,75.30
2017-07-02T18:01:09.504Z,75.80
2017-07-02T18:03:37.053Z,76.80
2017-07-02T18:06:04.593Z,77.30
2017-07-02T18:08:32.124Z,77.40
2017-07-02T18:11:00.562Z,79.30
2017-07-02T18:13:32.822Z,79.30
2017-07-02T18:16:10.658Z,79.50
2017-07-02T18:18:38.177Z,79.50
2017-07-02T18:21:05.785Z,80.30
2017-07-02T18:23:33.312Z,80.70
2017-07-02T18:26:00.798Z,80.30
2017-07-02T18:28:28.318Z,80.40
2017-07-02T18:30:55.881Z,80.80
2017-07-02T18:33:29.548Z,81.00
2017-07-02T18:35:57.047Z,81.30
2017-07-02T18:38:24.556Z,80.90
2017-07-02T18:40:53.046Z,81.60
2017-07-02T18:43:20.555Z,81.60
2017-07-02T18:45:48.067Z,82.20
2017-07-02T18:48:16.786Z,82.40
2017-07-02T18:50:44.503Z,82.20
2017-07-02T18:53:12.787Z,84.80
2017-07-02T18:55:41.101Z,83.90
2017-07-02T18:58:08.617Z,83.90
2017-07-02T19:00:36.918Z,83.90
2017-07-02T19:03:04.469Z,83.90
2017-07-02T19:05:31.973Z,84.50
2017-07-02T19:07:59.494Z,84.60
2017-07-02T19:10:27.345Z,84.10
2017-07-02T19:12:54.836Z,83.90
2017-07-02T19:15:22.423Z,84.00
2017-07-02T19:17:52.454Z,84.40
2017-07-02T19:20:20.014Z,86.00
2017-07-02T19:22:47.626Z,86.00
2017-07-02T19:25:15.129Z,86.10
2017-07-02T19:27:42.842Z,86.10
2017-07-02T19:30:10.353Z,85.80
2017-07-02T19:32:37.989Z,86.80
2017-07-02T19:35:05.624Z,87.10
2017-07-02T19:37:33.137Z,88.20
2017-07-02T19:40:00.706Z,88.80
2017-07-02T19:42:28.239Z,90.00
2017-07-02T19:44:55.755Z,90.60
2017-07-02T19:47:23.480Z,91.00
2017-07-02T19:49:51.097Z,90.80
2017-07-02T19:52:18.621Z,90.80
2017-07-02T19:54:46.926Z,90.60
2017-07-02T19:57:15.497Z,90.50
2017-07-02T19:59:43.770Z,90.20
2017-07-02T20:02:12.195Z,90.20
2017-07-02T20:04:39.681Z,90.20
2017-07-02T20:07:07.197Z,90.20
2017-07-02T20:09:34.735Z,90.10
2017-07-02T20:12:02.244Z,90.00
2017-07-02T20:14:29.755Z,89.70
2017-07-02T20:16:57.288Z,89.50
2017-07-02T20:19:24.819Z,89.30
2017-07-02T20:21:52.324Z,89.00
2017-07-02T20:24:20.647Z,88.30
2017-07-02T20:26:48.140Z,88.30
2017-07-02T20:29:15.649Z,88.10
2017-07-02T20:31:43.166Z,88.20
2017-07-02T20:34:11.444Z,88.30
2017-07-02T20:36:38.965Z,88.30
2017-07-02T20:39:06.499Z,88.50
2017-07-02T20:41:34.054Z,88.60
2017-07-02T20:44:01.567Z,88.80
2017-07-02T20:46:29.055Z,88.60
2017-07-02T20:48:56.637Z,88.50
2017-07-02T20:51:24.125Z,88.70
2017-07-02T20:53:51.647Z,88.60
2017-07-02T20:56:19.173Z,88.30
2017-07-02T20:58:47.454Z,89.40
2017-07-02T21:01:15.725Z,88.90
2017-07-02T21:03:43.256Z,88.90
2017-07-02T21:06:10.755Z,89.30
2017-07-02T21:08:39.071Z,89.90
2017-07-02T21:11:06.685Z,89.80
2017-07-02T21:13:34.196Z,90.00
2017-07-02T21:16:02.003Z,90.20
2017-07-02T21:18:30.148Z,90.30
2017-07-02T21:20:57.702Z,90.50
2017-07-02T21:23:25.248Z,90.60
2017-07-02T21:25:52.762Z,90.70
2017-07-02T21:28:20.286Z,90.80
2017-07-02T21:30:47.827Z,91.00
2017-07-02T21:33:15.322Z,91.00
2017-07-02T21:35:42.821Z,90.90
2017-07-02T21:38:10.357Z,90.90
2017-07-02T21:40:38.239Z,91.00
2017-07-02T21:43:06.513Z,90.90
2017-07-02T21:45:34.084Z,90.80
2017-07-02T21:48:01.592Z,90.80
2017-07-02T21:50:29.256Z,90.70
2017-07-02T21:52:56.810Z,90.50
2017-07-02T21:55:24.315Z,90.50
2017-07-02T21:57:52.560Z,90.60
2017-07-02T22:00:20.078Z,90.60
2017-07-02T22:02:47.570Z,90.50
2017-07-02T22:05:15.070Z,90.50
2017-07-02T22:07:42.584Z,90.30
2017-07-02T22:10:10.800Z,90.30
2017-07-02T22:12:39.059Z,90.40
2017-07-02T22:15:06.615Z,90.40
2017-07-02T22:17:34.137Z,90.20
2017-07-02T22:20:01.642Z,90.20
2017-07-02T22:22:29.955Z,90.10
2017-07-02T22:24:57.522Z,90.00
2017-07-02T22:27:25.038Z,90.00
2017-07-02T22:29:52.643Z,89.90
2017-07-02T22:32:20.149Z,89.80
2017-07-02T22:34:48.051Z,89.50
2017-07-02T22:37:15.605Z,89.90
2017-07-02T22:39:43.094Z,89.70
2017-07-02T22:42:10.605Z,89.30
2017-07-02T22:44:38.133Z,89.30
2017-07-02T22:47:05.614Z,89.40
2017-07-02T22:49:33.130Z,89.60
2017-07-02T22:52:00.667Z,89.70
2017-07-02T22:54:28.171Z,90.10
2017-07-02T22:56:55.722Z,90.00
2017-07-02T22:59:23.252Z,90.30
2017-07-02T23:01:50.755Z,90.40
2017-07-02T23:04:18.276Z,90.50
2017-07-02T23:06:45.795Z,90.70
2017-07-02T23:09:14.111Z,90.80
2017-07-02T23:11:41.636Z,90.70
2017-07-02T23:14:09.185Z,90.90
2017-07-02T23:16:36.686Z,90.90
2017-07-02T23:19:04.196Z,91.00
2017-07-02T23:21:31.735Z,91.00
2017-07-02T23:23:59.249Z,91.10
2017-07-02T23:26:26.781Z,91.00
2017-07-02T23:28:54.314Z,91.10
2017-07-02T23:31:21.818Z,91.10
2017-07-02T23:33:50.083Z,91.20
2017-07-02T23:36:18.396Z,91.20
2017-07-02T23:38:45.913Z,91.10
2017-07-02T23:41:13.404Z,91.00
2017-07-02T23:43:40.909Z,91.00
2017-07-02T23:46:08.399Z,90.90
2017-07-02T23:48:35.871Z,90.80
2017-07-02T23:51:03.415Z,90.80
2017-07-02T23:53:31.670Z,90.50
2017-07-02T23:55:59.147Z,90.50
2017-07-02T23:58:26.723Z,90.50
